Time;durP1;ratioP1;P1;durP2;ratioP2;P2;SDS_P1;SDS_P2;PMS_P1;PMS_P2;Temp;Humidity;BMP_temperature;BMP_pressure;BME280_temperature;BME280_humidity;BME280_pressure;Samples;Min_cycle;Max_cycle;Signal;HPM_P1;HPM_P2
2021/10/24 00:00:40;;;;;;;;;32.00;24.00;;;;;11.46;60.58;102198.19;4951051;28;45575;-63
2021/10/24 00:03:06;;;;;;;;;24.00;22.75;;;;;11.44;60.33;102186.81;4940832;28;45317;-63
2021/10/24 00:05:31;;;;;;;;;22.00;19.50;;;;;11.42;60.30;102183.38;4948484;28;45371;-62
2021/10/24 00:07:57;;;;;;;;;27.25;23.50;;;;;11.43;60.51;102191.22;4951710;28;45415;-63
2021/10/24 00:10:22;;;;;;;;;26.00;21.00;;;;;11.43;60.47;102185.94;4953548;28;45280;-63
2021/10/24 00:12:47;;;;;;;;;21.25;17.25;;;;;11.44;60.42;102184.16;4952310;28;45458;-61
2021/10/24 00:15:13;;;;;;;;;28.50;21.00;;;;;11.43;60.31;102180.66;4950893;28;45393;-63
2021/10/24 00:17:39;;;;;;;;;19.75;19.75;;;;;11.42;60.34;102172.81;4954181;28;45497;-62
2021/10/24 00:20:05;;;;;;;;;26.50;21.00;;;;;11.43;60.29;102166.63;4950353;28;45309;-64
2021/10/24 00:22:31;;;;;;;;;21.00;18.25;;;;;11.42;60.27;102172.81;4953602;28;45289;-64
2021/10/24 00:24:57;;;;;;;;;17.25;16.25;;;;;11.39;60.54;102168.53;4952803;28;45374;-61
2021/10/24 00:27:23;;;;;;;;;24.25;20.75;;;;;11.40;60.55;102166.75;4952401;28;45521;-62
2021/10/24 00:29:49;;;;;;;;;16.50;16.00;;;;;11.39;60.38;102175.59;4952201;28;46115;-63
2021/10/24 00:32:14;;;;;;;;;18.25;16.25;;;;;11.39;60.43;102165.03;4953019;28;45365;-62
2021/10/24 00:34:40;;;;;;;;;21.50;15.00;;;;;11.36;60.30;102168.63;4953045;28;45414;-62
2021/10/24 00:37:06;;;;;;;;;21.00;21.00;;;;;11.35;60.16;102168.72;4949121;28;45500;-61
2021/10/24 00:39:32;;;;;;;;;17.75;17.25;;;;;11.34;60.03;102167.84;4952248;28;46073;-61
2021/10/24 00:41:58;;;;;;;;;17.75;14.25;;;;;11.34;60.39;102167.00;4952976;28;45254;-62
2021/10/24 00:44:29;;;;;;;;;21.50;18.75;;;;;11.33;60.64;102165.28;4953106;28;45542;-63
2021/10/24 00:46:56;;;;;;;;;16.25;15.25;;;;;11.33;60.81;102167.91;4949173;28;45358;-61
2021/10/24 00:49:23;;;;;;;;;19.25;16.25;;;;;11.31;60.24;102162.72;4951999;28;46071;-62
2021/10/24 00:51:50;;;;;;;;;15.50;14.25;;;;;11.29;59.84;102161.88;4950432;28;45294;-62
2021/10/24 00:54:20;;;;;;;;;18.50;14.50;;;;;11.28;60.31;102157.53;4951724;28;45452;-63
2021/10/24 00:56:49;;;;;;;;;20.00;15.25;;;;;11.27;60.34;102166.38;4953771;28;45324;-61
2021/10/24 00:59:17;;;;;;;;;14.75;13.00;;;;;11.24;60.51;102158.59;4951463;28;46341;-62
2021/10/24 01:01:44;;;;;;;;;19.25;15.25;;;;;11.20;61.13;102156.97;4951499;28;45741;-62
2021/10/24 01:04:10;;;;;;;;;17.25;16.00;;;;;11.14;60.74;102158.09;4949359;28;45401;-62
2021/10/24 01:06:38;;;;;;;;;14.50;14.50;;;;;11.10;60.99;102153.84;4950907;28;45243;-64
2021/10/24 01:09:06;;;;;;;;;15.50;14.25;;;;;11.06;61.14;102156.66;4949333;28;46250;-61
2021/10/24 01:11:32;;;;;;;;;16.50;15.50;;;;;11.02;61.20;102155.91;4946077;28;45432;-62
2021/10/24 01:13:58;;;;;;;;;17.50;16.75;;;;;10.97;60.87;102155.22;4943073;28;45577;-60
2021/10/24 01:16:24;;;;;;;;;16.00;14.00;;;;;10.95;61.33;102148.31;4948080;28;45442;-60
2021/10/24 01:18:49;;;;;;;;;16.00;13.00;;;;;10.92;61.51;102149.28;4948019;28;45989;-60
2021/10/24 01:21:16;;;;;;;;;16.75;15.00;;;;;10.85;61.34;102146.03;4948458;28;45463;-61
2021/10/24 01:23:42;;;;;;;;;15.50;14.00;;;;;10.79;61.66;102151.50;4950496;28;45573;-60
2021/10/24 01:26:09;;;;;;;;;21.00;16.75;;;;;10.77;61.98;102148.09;4948735;28;45384;-60
2021/10/24 01:28:35;;;;;;;;;16.50;14.50;;;;;10.74;61.99;102144.69;4947560;28;46202;-61
2021/10/24 01:31:01;;;;;;;;;17.25;16.00;;;;;10.69;62.23;102138.75;4949632;28;45437;-60
2021/10/24 01:33:28;;;;;;;;;16.25;14.00;;;;;10.61;61.74;102134.63;4952310;28;45447;-60
2021/10/24 01:35:56;;;;;;;;;21.50;17.50;;;;;10.54;62.36;102134.91;4951710;28;45455;-60
2021/10/24 01:38:23;;;;;;;;;21.75;19.75;;;;;10.49;62.54;102128.94;4950403;28;46230;-60
2021/10/24 01:40:50;;;;;;;;;16.75;15.75;;;;;10.43;62.33;102126.53;4949062;28;45363;-61
2021/10/24 01:43:17;;;;;;;;;22.00;20.50;;;;;10.39;62.79;102119.66;4950828;28;45256;-60
2021/10/24 01:45:43;;;;;;;;;23.75;19.50;;;;;10.33;62.93;102116.31;4952720;28;45303;-60
2021/10/24 01:48:08;;;;;;;;;24.50;18.75;;;;;10.30;63.29;102118.22;4949213;28;46111;-60
2021/10/24 01:50:34;;;;;;;;;20.75;18.25;;;;;10.28;62.89;102104.25;4947476;28;45298;-60
2021/10/24 01:52:59;;;;;;;;;22.00;20.00;;;;;10.27;63.38;102113.06;4951201;28;45327;-60
2021/10/24 01:55:25;;;;;;;;;23.50;16.75;;;;;10.26;63.48;102111.31;4952209;28;45584;-60
2021/10/24 01:57:53;;;;;;;;;21.50;18.50;;;;;10.23;63.40;102095.66;4941562;28;46197;-60
2021/10/24 02:00:21;;;;;;;;;19.50;18.25;;;;;10.22;62.90;102093.91;4941879;28;45317;-60
2021/10/24 02:02:47;;;;;;;;;24.00;19.75;;;;;10.18;63.27;102087.00;4941868;28;45306;-60
2021/10/24 02:05:12;;;;;;;;;20.50;18.00;;;;;10.16;63.63;102089.69;4941788;28;45314;-60
2021/10/24 02:07:38;;;;;;;;;19.25;18.75;;;;;10.16;63.37;102081.81;4942024;28;46240;-60
2021/10/24 02:10:07;;;;;;;;;18.25;14.75;;;;;10.15;63.67;102081.88;4942153;28;45362;-60
2021/10/24 02:12:33;;;;;;;;;16.75;14.25;;;;;10.11;63.83;102080.25;4938080;28;45405;-59
2021/10/24 02:14:59;;;;;;;;;20.75;18.75;;;;;10.07;64.05;102077.72;4942188;28;45216;-59
2021/10/24 02:17:25;;;;;;;;;24.00;22.50;;;;;10.03;63.66;102073.50;4941695;28;46429;-61
2021/10/24 02:19:50;;;;;;;;;23.75;19.25;;;;;10.01;64.02;102069.19;4941639;28;45326;-60
2021/10/24 02:22:16;;;;;;;;;26.50;20.75;;;;;9.98;63.84;102066.66;4941983;28;45461;-59
2021/10/24 02:24:42;;;;;;;;;24.25;22.00;;;;;9.92;63.83;102061.63;4942798;28;45236;-60
2021/10/24 02:27:08;;;;;;;;;26.00;23.25;;;;;9.85;64.09;102060.13;4943292;28;45391;-59
2021/10/24 02:29:34;;;;;;;;;23.00;21.50;;;;;9.81;64.28;102055.88;4944756;28;45279;-60
2021/10/24 02:31:59;;;;;;;;;31.25;26.75;;;;;9.78;64.08;102059.47;4945204;28;45309;-60
2021/10/24 02:34:24;;;;;;;;;32.50;23.75;;;;;9.77;64.57;102058.59;4944915;28;45381;-59
2021/10/24 02:36:50;;;;;;;;;25.50;21.50;;;;;9.78;64.48;102055.06;4944803;28;46117;-60
2021/10/24 02:39:16;;;;;;;;;26.00;21.25;;;;;9.76;63.95;102046.38;4944529;28;45266;-59
2021/10/24 02:41:41;;;;;;;;;31.25;24.75;;;;;9.73;64.28;102043.00;4944612;28;45399;-59
2021/10/24 02:44:07;;;;;;;;;30.25;23.00;;;;;9.73;64.15;102041.22;4944842;28;45632;-60
2021/10/24 02:46:32;;;;;;;;;28.00;25.75;;;;;9.76;64.74;102048.13;4944447;28;45264;-59
2021/10/24 02:48:58;;;;;;;;;26.75;22.00;;;;;9.79;64.10;102041.00;4944570;28;45252;-59
2021/10/24 02:51:23;;;;;;;;;25.50;23.25;;;;;9.82;63.84;102041.81;4944584;28;45210;-60
2021/10/24 02:53:49;;;;;;;;;23.25;21.75;;;;;9.84;63.90;102043.47;4944792;28;45345;-60
2021/10/24 02:56:14;;;;;;;;;22.00;16.75;;;;;9.87;63.71;102038.09;4944102;28;45767;-59
2021/10/24 02:58:40;;;;;;;;;22.00;19.00;;;;;9.91;63.89;102033.59;4944565;28;45407;-60
2021/10/24 03:01:05;;;;;;;;;26.75;22.50;;;;;9.93;64.17;102027.34;4944436;28;45247;-60
2021/10/24 03:03:31;;;;;;;;;21.25;18.25;;;;;9.96;63.93;102026.41;4944504;28;45301;-60
2021/10/24 03:05:56;;;;;;;;;22.00;18.75;;;;;9.94;63.99;102023.78;4944405;28;45533;-60
2021/10/24 03:08:22;;;;;;;;;24.50;22.75;;;;;9.88;64.15;102034.56;4944151;28;45196;-59
2021/10/24 03:10:47;;;;;;;;;23.50;19.00;;;;;9.81;64.43;102027.78;4944503;28;45440;-59
2021/10/24 03:13:15;;;;;;;;;20.25;19.75;;;;;9.72;64.18;102025.50;4944159;28;45309;-60
2021/10/24 03:15:41;;;;;;;;;20.00;18.75;;;;;9.67;64.56;102030.03;4944130;28;45409;-59
2021/10/24 03:18:07;;;;;;;;;22.25;20.00;;;;;9.61;64.40;102033.75;4944143;28;45320;-60
2021/10/24 03:20:32;;;;;;;;;23.50;18.25;;;;;9.55;64.74;102033.94;4944368;28;45397;-59
2021/10/24 03:22:58;;;;;;;;;23.00;19.25;;;;;9.51;64.41;102027.94;4944036;28;45311;-60
2021/10/24 03:25:23;;;;;;;;;22.25;20.75;;;;;9.50;64.36;102018.34;4943746;28;45252;-60
2021/10/24 03:27:49;;;;;;;;;19.25;17.50;;;;;9.50;64.34;102020.97;4944050;28;45211;-59
2021/10/24 03:30:15;;;;;;;;;25.25;22.50;;;;;9.51;64.66;102019.19;4944261;28;45310;-60
2021/10/24 03:32:40;;;;;;;;;13.75;11.50;;;;;9.48;64.92;102019.31;4943886;28;45620;-59
2021/10/24 03:35:06;;;;;;;;;27.50;23.00;;;;;9.50;64.65;102020.09;4943997;28;45346;-60
2021/10/24 03:37:32;;;;;;;;;26.50;19.75;;;;;9.48;64.87;102014.06;4942742;28;45430;-60
2021/10/24 03:39:57;;;;;;;;;19.75;18.75;;;;;9.43;64.44;102027.34;4943823;28;45153;-60
2021/10/24 03:42:23;;;;;;;;;24.25;20.25;;;;;9.42;65.05;102025.63;4943659;28;45495;-60
2021/10/24 03:44:48;;;;;;;;;24.50;19.25;;;;;9.44;64.85;102026.44;4943966;28;45701;-60
2021/10/24 03:47:14;;;;;;;;;17.75;17.00;;;;;9.49;64.69;102021.88;4943467;28;45366;-60
2021/10/24 03:49:41;;;;;;;;;26.50;22.50;;;;;9.52;64.37;102028.78;4943909;28;45358;-59
2021/10/24 03:52:06;;;;;;;;;25.50;23.00;;;;;9.50;64.64;102036.75;4943569;28;45393;-60
2021/10/24 03:54:32;;;;;;;;;21.25;20.00;;;;;9.46;64.91;102036.88;4943530;28;45293;-59
2021/10/24 03:56:57;;;;;;;;;24.75;22.50;;;;;9.40;64.78;102039.72;4943229;28;45362;-59
2021/10/24 03:59:23;;;;;;;;;20.25;18.25;;;;;9.34;65.06;102043.44;4943686;28;45239;-60
2021/10/24 04:01:48;;;;;;;;;22.25;20.00;;;;;9.30;64.67;102046.22;4943510;28;45439;-59
2021/10/24 04:04:14;;;;;;;;;27.00;23.25;;;;;9.23;64.69;102040.28;4943285;28;45905;-59
2021/10/24 04:06:39;;;;;;;;;20.75;20.75;;;;;9.20;64.84;102049.13;4943272;28;45318;-59
2021/10/24 04:09:05;;;;;;;;;25.00;19.50;;;;;9.18;64.73;102050.97;4942216;28;45326;-60
2021/10/24 04:11:30;;;;;;;;;22.50;19.50;;;;;9.14;65.02;102054.59;4943280;28;45239;-59
2021/10/24 04:13:56;;;;;;;;;31.50;22.00;;;;;9.11;65.09;102053.84;4943481;28;45207;-59
2021/10/24 04:16:21;;;;;;;;;25.25;20.25;;;;;9.06;65.05;102053.97;4930943;28;45360;-59
2021/10/24 04:18:47;;;;;;;;;24.00;22.75;;;;;9.02;65.53;102052.38;4943430;28;45239;-59
2021/10/24 04:21:12;;;;;;;;;25.25;19.75;;;;;9.05;65.59;102056.66;4943277;28;45330;-59
2021/10/24 04:23:38;;;;;;;;;27.75;19.00;;;;;9.11;65.37;102059.97;4942987;28;45473;-59
2021/10/24 04:26:03;;;;;;;;;23.00;17.50;;;;;9.15;65.58;102056.31;4942961;28;45291;-60
2021/10/24 04:28:29;;;;;;;;;20.75;18.00;;;;;9.12;65.45;102050.31;4943257;28;45306;-59
2021/10/24 04:30:55;;;;;;;;;30.75;20.00;;;;;9.08;65.79;102052.16;4943460;28;45290;-60
2021/10/24 04:33:20;;;;;;;;;20.00;18.50;;;;;9.08;65.59;102048.66;4942942;28;45470;-60
2021/10/24 04:35:46;;;;;;;;;30.50;24.00;;;;;9.10;65.72;102052.97;4942911;28;45282;-59
2021/10/24 04:38:12;;;;;;;;;20.75;19.75;;;;;9.11;65.63;102048.59;4943154;28;45318;-59
2021/10/24 04:40:38;;;;;;;;;21.00;19.25;;;;;9.12;65.83;102045.03;4942604;28;45708;-60
2021/10/24 04:43:04;;;;;;;;;23.25;20.00;;;;;9.12;65.46;102043.28;4942959;28;45243;-59
2021/10/24 04:45:33;;;;;;;;;22.25;19.50;;;;;9.14;65.39;102044.06;4942809;28;45381;-59
2021/10/24 04:47:59;;;;;;;;;24.25;19.50;;;;;9.17;65.34;102044.00;4942546;28;45512;-59
2021/10/24 04:50:24;;;;;;;;;18.00;16.50;;;;;9.19;65.71;102041.31;4942804;28;45402;-59
2021/10/24 04:52:51;;;;;;;;;21.25;18.50;;;;;9.20;65.09;102043.88;4941240;28;46655;-60
2021/10/24 04:55:17;;;;;;;;;24.25;19.25;;;;;9.20;65.03;102035.13;4942563;28;45300;-59
2021/10/24 04:57:44;;;;;;;;;28.50;22.25;;;;;9.23;65.49;102045.53;4942930;28;45529;-60
2021/10/24 05:00:10;;;;;;;;;27.50;19.00;;;;;9.25;65.59;102038.47;4941432;28;45288;-60
2021/10/24 05:02:36;;;;;;;;;22.25;19.25;;;;;9.22;64.99;102033.31;4942532;28;45486;-59
2021/10/24 05:05:03;;;;;;;;;21.75;19.00;;;;;9.13;65.36;102031.84;4942461;28;45540;-59
2021/10/24 05:07:29;;;;;;;;;22.25;20.00;;;;;9.04;65.42;102032.16;4942797;28;45267;-59
2021/10/24 05:09:54;;;;;;;;;22.50;15.75;;;;;8.97;65.56;102032.38;4942416;28;45590;-59
2021/10/24 05:12:20;;;;;;;;;21.50;18.75;;;;;8.94;65.77;102031.59;4942210;28;45412;-60
2021/10/24 05:14:45;;;;;;;;;26.00;22.25;;;;;8.91;65.70;102036.06;4942323;28;45421;-59
2021/10/24 05:17:11;;;;;;;;;22.75;19.25;;;;;8.86;65.67;102032.75;4942759;28;45363;-59
2021/10/24 05:19:37;;;;;;;;;16.50;14.75;;;;;8.81;65.83;102026.75;4942411;28;45533;-59
2021/10/24 05:22:02;;;;;;;;;21.50;17.25;;;;;8.81;65.89;102030.25;4942412;28;46002;-59
2021/10/24 05:24:28;;;;;;;;;21.50;17.75;;;;;8.81;66.16;102021.50;4942290;28;45303;-59
2021/10/24 05:26:54;;;;;;;;;22.00;18.00;;;;;8.78;66.03;102022.47;4942436;28;45340;-59
2021/10/24 05:29:19;;;;;;;;;20.25;17.75;;;;;8.79;66.25;102018.94;4942355;28;45184;-59
2021/10/24 05:31:45;;;;;;;;;20.75;16.00;;;;;8.85;66.34;102021.38;4942432;28;45552;-60
2021/10/24 05:34:10;;;;;;;;;23.00;18.50;;;;;8.85;66.01;102015.25;4942059;28;45319;-59
2021/10/24 05:36:36;;;;;;;;;18.25;17.25;;;;;8.78;65.97;102016.34;4942375;28;45156;-59
2021/10/24 05:39:02;;;;;;;;;22.50;17.75;;;;;8.76;66.10;102015.53;4942122;28;45236;-60
2021/10/24 05:41:27;;;;;;;;;22.50;17.25;;;;;8.78;65.78;102014.59;4941598;28;46980;-60
2021/10/24 05:43:56;;;;;;;;;19.75;18.00;;;;;8.79;65.85;102012.81;4941959;28;45406;-60
2021/10/24 05:46:21;;;;;;;;;20.75;17.00;;;;;8.76;66.17;102018.16;4942255;28;45389;-60
2021/10/24 05:48:47;;;;;;;;;27.00;24.50;;;;;8.72;65.92;102014.78;4942079;28;45331;-60
2021/10/24 05:51:12;;;;;;;;;17.75;15.75;;;;;8.73;66.11;102007.75;4942210;28;45908;-60
2021/10/24 05:53:38;;;;;;;;;20.50;15.50;;;;;8.77;65.91;102011.97;4941759;28;45395;-60
2021/10/24 05:56:04;;;;;;;;;21.75;17.00;;;;;8.80;66.05;102004.03;4941996;28;45198;-60
2021/10/24 05:58:29;;;;;;;;;22.25;19.25;;;;;8.83;65.72;102007.41;4942031;28;45239;-59
2021/10/24 06:00:55;;;;;;;;;17.00;17.00;;;;;8.84;65.83;102000.38;4944909;28;45351;-59
2021/10/24 06:03:20;;;;;;;;;18.50;16.25;;;;;8.87;65.69;102001.16;4945110;28;45252;-59
2021/10/24 06:05:46;;;;;;;;;21.50;16.00;;;;;8.88;65.55;102000.25;4945504;28;45544;-60
2021/10/24 06:08:21;;;;;;;;;22.25;19.50;;;;;8.88;65.59;102005.50;4945245;28;45327;-60
2021/10/24 06:10:48;;;;;;;;;17.75;17.75;;;;;8.83;65.79;102004.78;4945009;28;45446;-59
2021/10/24 06:13:13;;;;;;;;;21.25;18.00;;;;;8.82;65.73;102004.81;4945048;28;45397;-60
2021/10/24 06:15:39;;;;;;;;;21.00;16.50;;;;;8.83;65.83;102010.03;4945267;28;45337;-59
2021/10/24 06:18:06;;;;;;;;;23.25;18.25;;;;;8.85;66.01;102002.13;4945135;28;45332;-60
2021/10/24 06:20:32;;;;;;;;;18.50;17.00;;;;;8.86;66.01;102003.84;4944981;28;46221;-59
2021/10/24 06:22:58;;;;;;;;;19.00;16.75;;;;;8.89;65.63;101998.47;4944881;28;45460;-59
2021/10/24 06:25:23;;;;;;;;;21.25;17.50;;;;;8.90;65.84;102000.19;4944883;28;45255;-59
2021/10/24 06:27:49;;;;;;;;;23.50;18.00;;;;;8.92;65.76;101995.72;4944995;28;45252;-60
2021/10/24 06:30:17;;;;;;;;;16.75;15.00;;;;;8.93;65.68;102000.97;4944858;28;45306;-59
2021/10/24 06:32:43;;;;;;;;;14.00;13.00;;;;;8.95;65.39;102000.91;4944655;28;45374;-59
2021/10/24 06:35:09;;;;;;;;;21.00;18.00;;;;;8.96;65.26;101986.84;4945008;28;45345;-59
2021/10/24 06:37:44;;;;;;;;;21.00;17.50;;;;;8.97;65.29;101990.34;4944918;28;45302;-59
2021/10/24 06:40:10;;;;;;;;;16.25;15.75;;;;;8.95;65.25;101983.38;4944445;28;45448;-59
2021/10/24 06:42:37;;;;;;;;;18.25;16.25;;;;;8.95;65.47;101990.41;4944482;28;45354;-61
2021/10/24 06:45:06;;;;;;;;;25.50;16.75;;;;;8.97;65.17;101990.34;4944915;28;45315;-60
2021/10/24 06:47:32;;;;;;;;;25.25;22.25;;;;;8.96;65.56;101989.47;4944785;28;45616;-59
2021/10/24 06:49:58;;;;;;;;;25.25;22.75;;;;;8.98;65.42;101998.16;4944532;28;45357;-59
2021/10/24 06:52:24;;;;;;;;;20.00;17.00;;;;;9.01;64.94;101998.09;4944641;28;45354;-59
2021/10/24 06:54:49;;;;;;;;;15.00;13.00;;;;;9.03;65.30;101998.88;4944536;28;45334;-59
2021/10/24 06:57:15;;;;;;;;;16.75;16.75;;;;;9.03;64.98;101987.53;4944429;28;45628;-59
2021/10/24 06:59:42;;;;;;;;;21.00;18.50;;;;;9.03;65.20;101983.13;4944375;28;45652;-60
2021/10/24 07:02:09;;;;;;;;;18.75;17.75;;;;;9.05;65.29;101989.19;4944531;28;45481;-59
2021/10/24 07:04:35;;;;;;;;;22.75;17.25;;;;;9.05;65.23;101978.66;4944616;28;45242;-59
2021/10/24 07:07:00;;;;;;;;;24.50;15.00;;;;;9.07;65.11;101987.34;4944557;28;45200;-59
2021/10/24 07:09:26;;;;;;;;;19.50;17.50;;;;;9.05;65.05;101980.44;4944245;28;45192;-59
2021/10/24 07:11:52;;;;;;;;;20.50;17.00;;;;;9.08;65.34;101982.94;4944045;28;45241;-59
2021/10/24 07:14:17;;;;;;;;;17.75;17.00;;;;;9.08;64.81;101983.81;4944276;28;45192;-59
2021/10/24 07:16:43;;;;;;;;;18.00;15.75;;;;;9.10;64.78;101979.38;4931951;28;45221;-59
2021/10/24 07:19:08;;;;;;;;;19.00;16.00;;;;;9.14;64.83;101980.97;4944016;28;46408;-60
2021/10/24 07:21:34;;;;;;;;;27.00;20.25;;;;;9.16;64.53;101984.44;4944186;28;45283;-60
2021/10/24 07:23:59;;;;;;;;;20.25;15.00;;;;;9.21;65.05;101979.00;4944078;28;45347;-59
2021/10/24 07:26:25;;;;;;;;;17.75;14.00;;;;;9.27;65.02;101991.97;4943926;28;45606;-60
2021/10/24 07:28:51;;;;;;;;;19.00;18.00;;;;;9.31;65.07;101990.94;4951711;28;46364;-60
2021/10/24 07:31:16;;;;;;;;;22.00;15.50;;;;;9.37;64.64;101993.34;4944085;28;45314;-59
2021/10/24 07:33:42;;;;;;;;;16.25;14.25;;;;;9.42;64.74;101995.84;4942665;28;45279;-60
2021/10/24 07:36:07;;;;;;;;;23.25;19.00;;;;;9.47;64.76;101997.38;4943915;28;45508;-59
2021/10/24 07:38:34;;;;;;;;;15.50;14.75;;;;;9.51;64.61;101988.50;4943915;28;45871;-60
2021/10/24 07:41:00;;;;;;;;;13.75;12.75;;;;;9.54;64.52;101984.88;4943486;28;45326;-59
2021/10/24 07:43:26;;;;;;;;;15.00;13.00;;;;;9.56;64.51;101980.44;4944063;28;45541;-60
2021/10/24 07:45:52;;;;;;;;;10.25;10.25;;;;;9.62;64.47;101981.97;4944030;28;45280;-60
2021/10/24 07:48:20;;;;;;;;;14.25;12.50;;;;;9.63;64.31;101967.91;4946176;28;45980;-60
2021/10/24 07:50:46;;;;;;;;;15.25;13.00;;;;;9.66;64.10;101966.03;4931370;28;45478;-60
2021/10/24 07:53:13;;;;;;;;;18.00;13.25;;;;;9.73;64.46;101962.28;4943465;28;45473;-60
2021/10/24 07:55:39;;;;;;;;;13.75;13.00;;;;;9.75;63.49;101957.81;4943797;28;45457;-60
2021/10/24 07:58:04;;;;;;;;;12.75;9.50;;;;;9.77;63.96;101966.50;4943429;28;45529;-59
2021/10/24 08:00:30;;;;;;;;;12.00;11.50;;;;;9.79;63.92;101955.91;4943737;28;45223;-60
2021/10/24 08:02:56;;;;;;;;;14.25;14.00;;;;;9.84;63.98;101953.13;4943575;28;45225;-60
2021/10/24 08:05:22;;;;;;;;;19.50;17.00;;;;;9.88;63.95;101955.59;4943680;28;45164;-60
2021/10/24 08:07:47;;;;;;;;;15.50;10.75;;;;;9.93;63.73;101956.28;4943274;28;45231;-59
2021/10/24 08:10:15;;;;;;;;;14.25;12.50;;;;;9.98;63.35;101966.66;4943231;28;45579;-61
2021/10/24 08:12:42;;;;;;;;;13.25;13.00;;;;;10.02;63.56;101960.34;4943450;28;45424;-60
2021/10/24 08:15:09;;;;;;;;;16.00;13.75;;;;;10.06;63.09;101951.41;4943475;28;45437;-60
2021/10/24 08:17:35;;;;;;;;;15.50;13.00;;;;;10.14;62.97;101961.66;4943144;28;46126;-60
2021/10/24 08:20:03;;;;;;;;;13.00;12.50;;;;;10.20;62.86;101964.94;4943278;28;45476;-60
2021/10/24 08:22:31;;;;;;;;;15.75;13.00;;;;;10.26;62.80;101962.06;4942776;28;45354;-60
2021/10/24 08:24:56;;;;;;;;;13.00;11.50;;;;;10.30;62.48;101960.19;4943104;28;45426;-60
2021/10/24 08:27:22;;;;;;;;;11.00;11.00;;;;;10.33;62.16;101966.19;4942603;28;46422;-59
2021/10/24 08:29:47;;;;;;;;;17.75;13.75;;;;;10.36;61.88;101965.22;4943275;28;45406;-60
2021/10/24 08:32:13;;;;;;;;;12.00;9.50;;;;;10.42;62.10;101962.34;4943064;28;45272;-59
2021/10/24 08:34:40;;;;;;;;;12.50;12.50;;;;;10.48;62.43;101969.16;4943211;28;45267;-60
2021/10/24 08:37:07;;;;;;;;;17.00;13.00;;;;;10.56;61.81;101967.06;4942843;28;45374;-60
2021/10/24 08:39:36;;;;;;;;;19.25;17.00;;;;;10.62;62.00;101969.47;4942708;28;47089;-60
2021/10/24 08:42:02;;;;;;;;;12.75;12.75;;;;;10.66;61.36;101965.78;4942831;28;45343;-60
2021/10/24 08:44:31;;;;;;;;;13.50;12.50;;;;;10.69;61.66;101970.94;4943259;28;45373;-59
2021/10/24 08:46:57;;;;;;;;;11.75;9.00;;;;;10.73;61.56;101966.41;4954468;28;45163;-60
2021/10/24 08:49:22;;;;;;;;;16.25;14.50;;;;;10.78;61.17;101967.94;4952738;28;45371;-59
2021/10/24 08:51:50;;;;;;;;;17.25;13.50;;;;;10.86;61.18;101963.22;4951371;28;45477;-59
2021/10/24 08:54:28;;;;;;;;;15.25;13.00;;;;;10.90;60.95;101959.53;4951800;28;45417;-60
2021/10/24 08:56:55;;;;;;;;;16.75;15.25;;;;;10.92;61.06;101956.84;4947555;28;45469;-59
2021/10/24 08:59:21;;;;;;;;;18.50;16.25;;;;;10.99;61.00;101954.81;4950950;28;45286;-59
2021/10/24 09:01:54;;;;;;;;;19.75;16.00;;;;;11.05;60.60;101954.53;4953602;28;45151;-59
2021/10/24 09:04:20;;;;;;;;;20.00;16.75;;;;;11.11;60.99;101956.91;4951265;28;45629;-60
2021/10/24 09:06:55;;;;;;;;;15.75;14.50;;;;;11.17;60.83;101951.41;4951065;28;46147;-60
2021/10/24 09:09:29;;;;;;;;;19.50;17.00;;;;;11.25;60.84;101940.50;4950094;28;45268;-59
2021/10/24 09:12:01;;;;;;;;;18.25;16.50;;;;;11.32;60.28;101932.28;4950916;28;45441;-59
2021/10/24 09:14:50;;;;;;;;;17.00;15.75;;;;;11.38;60.11;101933.81;4950391;28;45267;-59
2021/10/24 09:17:26;;;;;;;;;24.25;16.50;;;;;11.43;60.04;101922.09;4941791;28;45621;-59
2021/10/24 09:20:03;;;;;;;;;19.75;17.75;;;;;11.48;59.94;101923.69;4947035;28;45384;-62
2021/10/24 09:22:30;;;;;;;;;15.25;12.25;;;;;11.48;59.69;101916.63;4950205;28;45498;-60
2021/10/24 09:25:19;;;;;;;;;14.00;14.00;;;;;11.46;59.55;101919.34;4951153;28;45773;-60
2021/10/24 09:27:55;;;;;;;;;7.00;6.00;;;;;11.48;59.83;101916.63;4943223;28;45564;-61
2021/10/24 09:30:34;;;;;;;;;12.50;12.50;;;;;11.49;60.16;101914.84;4948782;28;45339;-62
2021/10/24 09:33:09;;;;;;;;;16.00;13.00;;;;;11.51;59.91;101916.47;4951918;28;45440;-61
2021/10/24 09:35:40;;;;;;;;;13.25;10.50;;;;;11.54;59.43;101912.88;4952030;28;45509;-62
2021/10/24 09:38:20;;;;;;;;;16.00;13.50;;;;;11.59;59.59;101919.63;4953954;28;46150;-62
2021/10/24 09:40:51;;;;;;;;;14.25;14.00;;;;;11.61;59.47;101909.91;4950930;28;45472;-63
2021/10/24 09:43:30;;;;;;;;;16.75;16.00;;;;;11.64;59.73;101912.38;4955347;28;45282;-65
2021/10/24 09:45:56;;;;;;;;;14.00;12.75;;;;;11.71;59.77;101924.38;4953835;28;45456;-64
2021/10/24 09:48:23;;;;;;;;;14.50;13.25;;;;;11.76;59.60;101924.16;4953088;28;45740;-63
2021/10/24 09:51:00;;;;;;;;;16.00;12.50;;;;;11.83;59.59;101917.72;4955048;28;45239;-62
2021/10/24 09:53:30;;;;;;;;;14.00;13.75;;;;;11.89;58.91;101917.44;4953733;28;45256;-63
2021/10/24 09:55:56;;;;;;;;;16.50;12.00;;;;;11.92;59.09;101924.34;4954195;28;45882;-63
2021/10/24 09:58:25;;;;;;;;;14.75;12.00;;;;;11.95;58.98;101922.44;4953159;28;45888;-63
2021/10/24 10:00:51;;;;;;;;;15.50;15.00;;;;;12.00;58.81;101909.00;4954068;28;45369;-64
2021/10/24 10:03:21;;;;;;;;;17.25;15.25;;;;;12.02;58.93;101908.03;4952779;28;45524;-64
2021/10/24 10:05:46;;;;;;;;;19.00;15.50;;;;;12.06;58.71;101908.72;4954559;28;45334;-66
2021/10/24 10:08:13;;;;;;;;;14.50;13.75;;;;;12.11;58.75;101909.38;4955111;28;45469;-64
2021/10/24 10:10:50;;;;;;;;;19.25;17.00;;;;;12.17;58.66;101910.88;4954139;28;45239;-61
2021/10/24 10:13:21;;;;;;;;;14.50;14.50;;;;;12.16;58.31;101907.34;4952443;28;45482;-62
2021/10/24 10:15:49;;;;;;;;;17.25;17.00;;;;;12.17;58.55;101909.09;4952310;28;45378;-63
2021/10/24 10:18:16;;;;;;;;;21.75;16.00;;;;;12.20;58.67;101914.22;4952915;28;46025;-61
2021/10/24 10:20:50;;;;;;;;;16.25;15.00;;;;;12.26;58.82;101918.38;4953566;28;45179;-65
2021/10/24 10:23:36;;;;;;;;;22.00;16.75;;;;;12.34;58.53;101920.66;4952518;28;45269;-61
2021/10/24 10:26:40;;;;;;;;;20.50;11.50;;;;;12.39;58.34;101918.63;4966917;28;45609;-66
2021/10/24 10:29:08;;;;;;;;;14.50;12.50;;;;;12.42;58.39;101919.34;4952157;28;45316;-62
2021/10/24 10:31:35;;;;;;;;;22.00;19.25;;;;;12.45;58.50;101919.19;4953607;28;45709;-63
2021/10/24 10:34:10;;;;;;;;;18.25;16.25;;;;;12.44;58.32;101922.75;4951681;28;45380;-65
2021/10/24 10:36:46;;;;;;;;;25.00;19.50;;;;;12.41;58.29;101924.72;4944743;28;45675;-63
2021/10/24 10:39:30;;;;;;;;;14.50;13.75;;;;;12.43;58.38;101913.13;4944857;28;46363;-63
2021/10/24 10:41:56;;;;;;;;;14.75;14.50;;;;;12.47;58.24;101914.69;4941636;28;45530;-63
2021/10/24 10:44:22;;;;;;;;;16.25;14.75;;;;;12.54;58.14;101917.88;4943026;28;45700;-63
2021/10/24 10:46:47;;;;;;;;;15.00;10.75;;;;;12.56;58.33;101922.19;4942580;28;45599;-63
2021/10/24 10:49:21;;;;;;;;;17.75;15.50;;;;;12.62;58.22;101925.44;4947920;28;46172;-63
2021/10/24 10:51:47;;;;;;;;;16.75;15.25;;;;;12.69;58.06;101917.13;4943418;28;45473;-63
2021/10/24 10:54:13;;;;;;;;;15.75;15.50;;;;;12.76;57.65;101917.69;4943960;28;45496;-62
2021/10/24 10:56:44;;;;;;;;;17.00;14.00;;;;;12.82;58.02;101927.97;4944477;28;45486;-64
2021/10/24 10:59:14;;;;;;;;;19.50;18.75;;;;;12.88;57.73;101924.19;4942894;28;45534;-63
2021/10/24 11:01:40;;;;;;;;;22.75;20.75;;;;;12.92;57.75;101923.94;4945462;28;45342;-62
2021/10/24 11:04:08;;;;;;;;;23.00;20.25;;;;;12.98;57.93;101922.78;4944823;28;45307;-60
2021/10/24 11:06:34;;;;;;;;;22.50;17.25;;;;;13.02;57.86;101922.53;4946098;28;45569;-61
2021/10/24 11:09:11;;;;;;;;;20.75;16.25;;;;;13.05;57.73;101922.38;4941846;28;45762;-61
2021/10/24 11:11:45;;;;;;;;;9.50;9.00;;;;;13.09;57.42;101923.94;4935008;28;45667;-61
2021/10/24 11:14:14;;;;;;;;;15.50;15.50;;;;;13.13;57.26;101920.22;4944038;28;45565;-61